Relevés horaires Bierset (Belgique)


Relevés horaires à Bierset - Lundi 29 Mars 2021
Heure UTC1 Température [°C] Vent [km/h] Hum. [%] Pres.4 [hPa] Visi. [Km] Nébu. [octa] Préc.5 [mm] Cond.
2m. Res. Ros. Dir.2 Vit. Moy. Raf.3
23:00 11.0 10.7 1.9 SSE 5.6 5.6 13.0 53 1031.9(0.4/3h) 30 1/8 -- --
22:00 13.3 13.3 1.3 S 3.7 3.7 5.6 44 1031.6(0.6/3h) 30 1/8 -- --
21:00 14.4 14.4 0.6 S 3.7 5.6 5.6 39 1031.3(0.9/3h) 30 1/8 -- --
20:00 14.8 14.8 -- SO 3.7 3.7 3.7 -- 1031.2(0.8/3h) 30 1/8 -- --
19:00 14.4 14.4 1.5 OSO 1.9 3.7 5.6 41 1030.9(0.5/3h) 30 1/8 -- --
18:00 15.3 15.3 4.5 O 3.7 13.0 18.5 48 1030.3(0.0/3h) 30 1/8 0/12h
--
17:00 18.1 18.1 3.3 O 5.6 7.4 11.1 37 1030.1(-0.2/3h) 30 1/8 -- --
16:00 19.2 19.2 1.6 O 7.4 9.3 13.0 31 1030(-0.3/3h) 30 1/8 -- --
15:00 19.7 19.7 -0.2 OSO 9.3 13.0 18.5 26 1030(-0.5/3h) 30 1/8 -- --
14:00 19.7 19.7 0.9 OSO 11.1 13.0 18.5 28 1030.1(-0.4/3h) 30 1/8 -- --
13:00 19.4 19.4 0.6 OSO 11.1 13.0 16.7 28 1030.3(0.1/3h) 30 1/8 -- --
12:00 18.1 18.1 1.0 OSO 9.3 13.0 18.5 32 1030.6(0.7/3h) 30 1/8 0/6h
--
11:00 17.0 16.7 0.5 SO 13.0 13.0 16.7 33 1030.8(1.0/3h) 30 1/8 -- --
10:00 15.5 15.1 2.0 SO 11.1 13.0 18.5 40 1030.7(1.5/3h) 30 1/8 -- --
09:00 13.7 12.7 2.7 SO 13.0 13.0 18.5 47 1030.3(1.2/3h) 30 1/8 -- --
08:00 11.3 10 3.4 SSO 11.1 11.1 14.8 58 1030.1(1.0/3h) 30 2/8 -- --
07:00 9.5 7.8 2.8 SSO 11.1 11.1 14.8 63 1029.7(0.6/3h) 30 2/8 -- --
06:00 8.4 7.3 2.4 S 7.4 9.3 18.5 66 1029.5(0.6/3h) 30 2/8 0/12h
--
05:00 8.4 7.3 2.1 S 7.4 7.4 14.8 64 1029.3(0.3/3h) 30 3/8 -- --
04:00 8.6 7.5 1.9 S 7.4 7.4 13.0 63 1029.2(-0.1/3h) 30 3/8 -- --
03:00 8.5 7.4 2.1 SSO 7.4 9.3 18.5 64 1028.9(-0.3/3h) 20 5/8 -- --
02:00 9.1 7.7 1.7 S 9.3 9.3 18.5 60 1029(0.0/3h) 20 7/8 -- --
01:00 9.3 7.9 1.8 SSO 9.3 9.3 13.0 59 1029.1(0.3/3h) 20 7/8 -- --
00:00 9.4 8.4 1.7 SSO 7.4 9.3 18.5 59 1029.1(0.6/3h) 30 7/8 0/6h
0/24h
--

1 Coordinated Universal Time. Actuellement il est 07:00 locale et 05:00 UTC.

2 Le vent souffle depuis la direction indiquée vers la direction oposée.

3 Les rafales max. sont disponible 40 min après l'heure du relevé.

4 Pour les stations d'altitude (plus de 600m) le géopotentiel du niveau le plus proche de la pression obligatoire est indiqué.

5 Les stations disposant d'un diffuseur peuvent indiquer "trace". Cela signifie que des précipitations ont touchés le sol mais que la quantité est inférieure à 0.1 mm.

Récapitulatif de la journée
Température [°C] Vent [km/h] Ensoleillement4 [h] Precipitations totale5 [mm] Pression [Hpa]
Min1 Max.2 Moy.3 Max. Min Max.
8.1 19.9 9.4 18.5 0 h 0 min 0 1028.9 1031.9

1 Température minimale relevée entre 18:00 UTC la veille et 18:00 UTC le jour donné.

2 Température maximale relevée entre 06:00 UTC le jour donné et 06:00 UTC le lendemain.

3 Vent moyen de la journée basé sur les relevés horaires.

4 Ensoleillement en heures relevé entre 06:00 UTC la veille et 06:00 UTC le jour donné.

5 Précipitations totales tombées entre 06:00 UTC la jour donné et 06:00 UTC le lendemain.

Graphiques horaires